createdAt,value
2019-03-06T00:01:58.101Z,99.90
2019-03-06T00:07:00.902Z,99.90
2019-03-06T00:12:04.072Z,99.90
2019-03-06T00:17:10.032Z,99.90
2019-03-06T00:22:12.874Z,99.90
2019-03-06T00:27:15.737Z,99.90
2019-03-06T00:32:19.574Z,99.90
2019-03-06T00:37:22.481Z,99.90
2019-03-06T00:42:25.430Z,99.90
2019-03-06T00:47:28.300Z,99.90
2019-03-06T00:52:35.638Z,99.90
2019-03-06T00:57:38.650Z,99.90
2019-03-06T01:02:41.596Z,99.90
2019-03-06T01:07:44.579Z,99.90
2019-03-06T01:12:47.620Z,99.90
2019-03-06T01:17:50.695Z,99.90
2019-03-06T01:23:05.600Z,99.90
2019-03-06T01:28:20.948Z,99.90
2019-03-06T01:34:00.203Z,99.90
2019-03-06T01:39:34.236Z,99.90
2019-03-06T01:44:46.866Z,99.90
2019-03-06T01:50:01.575Z,99.90
2019-03-06T01:55:15.365Z,99.90
2019-03-06T02:00:26.381Z,99.80
2019-03-06T02:05:34.002Z,99.90
2019-03-06T02:10:56.762Z,99.90
2019-03-06T02:16:08.982Z,99.90
2019-03-06T02:21:36.663Z,99.90
2019-03-06T02:26:43.223Z,99.40
2019-03-06T02:31:53.236Z,98.50
2019-03-06T02:37:03.978Z,97.40
2019-03-06T02:42:10.097Z,97.50
2019-03-06T02:47:21.763Z,97.40
2019-03-06T02:52:26.080Z,97.50
2019-03-06T02:57:37.547Z,97.50
2019-03-06T03:03:05.741Z,96.00
2019-03-06T03:08:09.903Z,95.30
2019-03-06T03:13:16.355Z,94.20
2019-03-06T03:18:23.247Z,94.00
2019-03-06T03:23:32.913Z,93.80
2019-03-06T03:28:44.368Z,91.40
2019-03-06T03:33:52.555Z,91.50
2019-03-06T03:38:59.748Z,95.90
2019-03-06T03:44:05.721Z,99.60
2019-03-06T03:49:12.571Z,99.00
2019-03-06T03:54:27.188Z,97.40
2019-03-06T03:59:34.935Z,99.90
2019-03-06T04:04:44.320Z,99.90
2019-03-06T04:09:52.792Z,99.90
2019-03-06T04:14:57.737Z,98.60
2019-03-06T04:20:01.672Z,99.90
2019-03-06T04:25:07.846Z,99.90
2019-03-06T04:30:14.746Z,99.90
2019-03-06T04:35:19.368Z,99.90
2019-03-06T04:40:23.616Z,99.90
2019-03-06T04:45:33.384Z,99.90
2019-03-06T04:50:38.414Z,99.90
2019-03-06T04:55:47.583Z,99.90
2019-03-06T05:00:58.323Z,99.90
2019-03-06T05:06:02.808Z,99.90
2019-03-06T05:11:16.050Z,99.90
2019-03-06T05:16:32.370Z,99.90
2019-03-06T05:21:37.626Z,99.90
2019-03-06T05:26:58.533Z,99.90
2019-03-06T05:32:31.865Z,99.90
2019-03-06T05:38:01.091Z,99.90
2019-03-06T05:43:10.066Z,99.90
2019-03-06T05:48:16.729Z,99.90
2019-03-06T05:53:27.411Z,99.90
2019-03-06T05:58:34.409Z,99.90
2019-03-06T06:03:40.590Z,99.90
2019-03-06T06:09:05.822Z,99.90
2019-03-06T06:14:11.679Z,99.90
2019-03-06T06:19:26.768Z,99.90
2019-03-06T06:24:39.190Z,99.90
2019-03-06T06:29:58.484Z,99.90
2019-03-06T06:35:00.390Z,99.90
2019-03-06T06:40:18.001Z,99.90
2019-03-06T06:45:23.260Z,99.90
2019-03-06T06:50:27.390Z,99.90
2019-03-06T06:56:13.505Z,99.90
2019-03-06T07:02:27.473Z,99.90
2019-03-06T07:07:52.084Z,99.90
2019-03-06T07:13:27.472Z,99.90
2019-03-06T07:18:42.027Z,99.90
2019-03-06T07:24:06.429Z,99.90
2019-03-06T07:29:47.256Z,99.90
2019-03-06T07:36:04.367Z,99.90
2019-03-06T07:41:34.090Z,99.90
2019-03-06T07:46:58.916Z,99.90
2019-03-06T07:52:25.365Z,99.90
2019-03-06T07:57:51.083Z,99.90
2019-03-06T08:03:17.250Z,99.90
2019-03-06T08:08:23.123Z,99.90
2019-03-06T08:13:38.416Z,99.90
2019-03-06T08:18:58.481Z,99.90
2019-03-06T08:24:23.956Z,99.90
2019-03-06T08:29:34.074Z,99.90
2019-03-06T08:34:49.959Z,99.90
2019-03-06T08:40:13.413Z,99.90
2019-03-06T08:45:23.687Z,99.90
2019-03-06T08:50:48.677Z,99.90
2019-03-06T08:56:09.503Z,99.90
2019-03-06T09:02:00.107Z,99.90
2019-03-06T09:07:15.757Z,99.90
2019-03-06T09:12:36.445Z,99.90
2019-03-06T09:18:09.347Z,99.90
2019-03-06T09:23:34.557Z,99.90
2019-03-06T09:28:48.111Z,99.90
2019-03-06T09:34:22.730Z,99.90
2019-03-06T09:39:50.823Z,99.90
2019-03-06T09:45:18.126Z,99.90
2019-03-06T09:50:32.488Z,99.90
2019-03-06T09:55:53.211Z,99.90
2019-03-06T10:01:17.033Z,99.90
2019-03-06T10:06:39.312Z,99.90
2019-03-06T10:11:54.547Z,99.90
2019-03-06T10:17:12.605Z,99.90
2019-03-06T10:22:15.486Z,99.80
2019-03-06T10:27:18.307Z,98.70
2019-03-06T10:32:23.963Z,97.60
2019-03-06T10:37:26.865Z,96.40
2019-03-06T10:42:32.743Z,94.50
2019-03-06T10:47:38.653Z,92.80
2019-03-06T10:52:41.483Z,94.30
2019-03-06T10:57:53.427Z,94.50
2019-03-06T11:02:57.003Z,92.00
2019-03-06T11:08:01.199Z,90.00
2019-03-06T11:13:08.731Z,90.00
2019-03-06T11:18:11.829Z,82.90
2019-03-06T11:23:15.079Z,64.20
2019-03-06T11:28:18.121Z,59.50
2019-03-06T11:33:22.055Z,61.60
2019-03-06T11:38:28.516Z,61.10
2019-03-06T11:43:31.441Z,61.40
2019-03-06T11:48:34.291Z,64.50
2019-03-06T11:53:37.196Z,64.00
2019-03-06T11:58:40.138Z,62.80
2019-03-06T12:03:44.462Z,58.40
2019-03-06T12:08:47.331Z,62.30
2019-03-06T12:13:50.154Z,55.70
2019-03-06T12:18:52.978Z,56.20
2019-03-06T12:23:55.830Z,44.30
2019-03-06T12:28:58.742Z,43.00
2019-03-06T12:34:01.595Z,42.60
2019-03-06T12:39:11.547Z,44.10
2019-03-06T12:44:20.286Z,47.00
2019-03-06T12:49:25.209Z,48.20
2019-03-06T12:54:31.125Z,45.30
2019-03-06T12:59:33.941Z,49.00
2019-03-06T13:04:36.848Z,49.30
2019-03-06T13:09:39.699Z,46.20
2019-03-06T13:14:42.616Z,42.80
2019-03-06T13:19:48.587Z,41.40
2019-03-06T13:24:57.344Z,42.30
2019-03-06T13:30:00.311Z,42.60
2019-03-06T13:35:05.219Z,40.80
2019-03-06T13:40:08.150Z,44.40
2019-03-06T13:45:18.176Z,43.70
2019-03-06T13:50:21.438Z,47.50
2019-03-06T13:55:24.271Z,47.80
2019-03-06T14:00:27.126Z,49.10
2019-03-06T14:05:30.247Z,48.50
2019-03-06T14:10:33.163Z,47.30
2019-03-06T14:15:39.214Z,48.10
2019-03-06T14:20:42.106Z,46.30
2019-03-06T14:25:45.278Z,48.00
2019-03-06T14:30:48.130Z,45.00
2019-03-06T14:35:50.984Z,43.90
2019-03-06T14:40:59.903Z,39.50
2019-03-06T14:46:06.122Z,39.60
2019-03-06T14:51:09.151Z,32.50
2019-03-06T14:56:16.509Z,29.80
2019-03-06T15:01:19.672Z,26.50
2019-03-06T15:06:22.519Z,26.30
2019-03-06T15:11:32.932Z,26.90
2019-03-06T15:16:30.053Z,24.20
2019-03-06T15:21:35.776Z,19.60
2019-03-06T15:26:38.626Z,19.20
2019-03-06T15:31:42.068Z,16.30
2019-03-06T15:36:45.207Z,12.20
2019-03-06T15:41:48.101Z,13.80
2019-03-06T15:46:50.973Z,12.50
2019-03-06T15:51:53.907Z,9.70
2019-03-06T15:56:56.717Z,11.10
2019-03-06T16:01:59.644Z,11.40
2019-03-06T16:07:02.773Z,11.20
2019-03-06T16:12:05.814Z,9.90
2019-03-06T16:17:21.374Z,8.50
2019-03-06T16:22:24.347Z,6.10
2019-03-06T16:27:27.385Z,9.00
2019-03-06T16:32:30.228Z,9.20
2019-03-06T16:37:33.121Z,16.90
2019-03-06T16:42:41.848Z,23.70
2019-03-06T16:47:44.775Z,24.30
2019-03-06T16:52:51.044Z,29.60
2019-03-06T16:57:55.019Z,31.30
2019-03-06T17:02:58.666Z,29.30
2019-03-06T17:08:01.756Z,29.90
2019-03-06T17:13:04.690Z,27.70
2019-03-06T17:18:07.716Z,28.60
2019-03-06T17:23:10.534Z,32.10
2019-03-06T17:28:16.555Z,43.60
2019-03-06T17:33:19.631Z,66.30
2019-03-06T17:38:22.581Z,79.70
2019-03-06T17:43:25.519Z,91.50
2019-03-06T17:48:28.512Z,95.90
2019-03-06T17:53:35.628Z,99.90
2019-03-06T17:58:41.225Z,99.90
2019-03-06T18:03:57.059Z,99.90
2019-03-06T18:08:59.881Z,99.90
2019-03-06T18:14:04.557Z,99.90
2019-03-06T18:19:07.335Z,99.90
2019-03-06T18:24:10.265Z,99.90
2019-03-06T18:29:14.724Z,99.90
2019-03-06T18:34:17.966Z,99.90
2019-03-06T18:39:25.171Z,99.90
2019-03-06T18:44:28.226Z,99.90
2019-03-06T18:49:31.037Z,99.90
2019-03-06T18:54:33.846Z,99.90
2019-03-06T18:59:36.766Z,99.90
2019-03-06T19:04:39.569Z,99.90
2019-03-06T19:09:42.777Z,99.90
2019-03-06T19:14:49.331Z,99.90
2019-03-06T19:19:52.860Z,99.90
2019-03-06T19:24:55.671Z,99.90
2019-03-06T19:29:58.444Z,99.90
2019-03-06T19:35:01.312Z,99.90
2019-03-06T19:40:04.623Z,99.90
2019-03-06T19:45:08.756Z,99.90
2019-03-06T19:50:14.209Z,99.90
2019-03-06T19:55:17.996Z,99.90
2019-03-06T20:00:21.710Z,99.90
2019-03-06T20:05:27.963Z,99.90
2019-03-06T20:10:34.683Z,99.90
2019-03-06T20:15:40.737Z,99.90
2019-03-06T20:20:43.556Z,99.90
2019-03-06T20:25:48.568Z,99.90
2019-03-06T20:30:57.517Z,99.90
2019-03-06T20:36:00.351Z,99.90
2019-03-06T20:41:03.773Z,99.90
2019-03-06T20:46:06.567Z,99.90
2019-03-06T20:51:09.361Z,99.90
2019-03-06T20:56:12.171Z,99.90
2019-03-06T21:01:14.971Z,99.90
2019-03-06T21:06:18.277Z,99.90
2019-03-06T21:11:21.113Z,99.90
2019-03-06T21:16:23.945Z,99.90
2019-03-06T21:21:29.562Z,99.90
2019-03-06T21:26:32.400Z,99.90
2019-03-06T21:31:35.534Z,99.90
2019-03-06T21:36:39.089Z,99.90
2019-03-06T21:41:41.885Z,99.90
2019-03-06T21:46:44.716Z,99.90
2019-03-06T21:51:48.056Z,99.90
2019-03-06T21:56:51.155Z,99.90
2019-03-06T22:01:54.074Z,99.90
2019-03-06T22:06:56.971Z,99.90
2019-03-06T22:11:59.830Z,99.90
2019-03-06T22:17:03.096Z,99.90
2019-03-06T22:22:06.117Z,99.90
2019-03-06T22:27:08.954Z,99.90
2019-03-06T22:32:12.367Z,99.90
2019-03-06T22:37:15.825Z,99.90
2019-03-06T22:42:18.737Z,99.90
2019-03-06T22:47:21.550Z,99.90
2019-03-06T22:52:30.270Z,99.30
2019-03-06T22:57:33.128Z,97.00
2019-03-06T23:02:36.653Z,94.80
2019-03-06T23:07:41.804Z,94.10
2019-03-06T23:12:44.624Z,94.50
2019-03-06T23:17:47.510Z,94.20
2019-03-06T23:22:51.040Z,94.30
2019-03-06T23:27:53.894Z,93.50
2019-03-06T23:32:56.690Z,93.70
2019-03-06T23:37:59.854Z,93.40
2019-03-06T23:43:03.251Z,93.40
2019-03-06T23:48:06.070Z,93.60
2019-03-06T23:53:10.653Z,93.20
2019-03-06T23:58:13.787Z,91.40
